地図

経路データ

SID SEASON NUMBER BASIN SUBBASIN NAME ISO_TIME NATURE LAT LON WMO_WIND WMO_PRES WMO_AGENCY TRACK_TYPE DIST2LAND LANDFALL IFLAG USA_AGENCY USA_ATCF_ID USA_LAT USA_LON USA_RECORD USA_STATUS USA_WIND USA_PRES USA_SSHS USA_R34_NE USA_R34_SE USA_R34_SW USA_R34_NW USA_R50_NE USA_R50_SE USA_R50_SW USA_R50_NW USA_R64_NE USA_R64_SE USA_R64_SW USA_R64_NW USA_POCI USA_ROCI USA_RMW USA_EYE TOKYO_LAT TOKYO_LON TOKYO_GRADE TOKYO_WIND TOKYO_PRES TOKYO_R50_DIR TOKYO_R50_LONG TOKYO_R50_SHORT TOKYO_R30_DIR TOKYO_R30_LONG TOKYO_R30_SHORT TOKYO_LAND CMA_LAT CMA_LON CMA_CAT CMA_WIND CMA_PRES HKO_LAT HKO_LON HKO_CAT HKO_WIND HKO_PRES NEWDELHI_LAT NEWDELHI_LON NEWDELHI_GRADE NEWDELHI_WIND NEWDELHI_PRES NEWDELHI_CI NEWDELHI_DP NEWDELHI_POCI REUNION_LAT REUNION_LON REUNION_TYPE REUNION_WIND REUNION_PRES REUNION_TNUM REUNION_CI REUNION_RMW REUNION_R34_NE REUNION_R34_SE REUNION_R34_SW REUNION_R34_NW REUNION_R50_NE REUNION_R50_SE REUNION_R50_SW REUNION_R50_NW REUNION_R64_NE REUNION_R64_SE REUNION_R64_SW REUNION_R64_NW BOM_LAT BOM_LON BOM_TYPE BOM_WIND BOM_PRES BOM_TNUM BOM_CI BOM_RMW BOM_R34_NE BOM_R34_SE BOM_R34_SW BOM_R34_NW BOM_R50_NE BOM_R50_SE BOM_R50_SW BOM_R50_NW BOM_R64_NE BOM_R64_SE BOM_R64_SW BOM_R64_NW BOM_ROCI BOM_POCI BOM_EYE BOM_POS_METHOD BOM_PRES_METHOD NADI_LAT NADI_LON NADI_CAT NADI_WIND NADI_PRES WELLINGTON_LAT WELLINGTON_LON WELLINGTON_WIND WELLINGTON_PRES DS824_LAT DS824_LON DS824_STAGE DS824_WIND DS824_PRES TD9636_LAT TD9636_LON TD9636_STAGE TD9636_WIND TD9636_PRES TD9635_LAT TD9635_LON TD9635_WIND TD9635_PRES TD9635_ROCI NEUMANN_LAT NEUMANN_LON NEUMANN_CLASS NEUMANN_WIND NEUMANN_PRES MLC_LAT MLC_LON MLC_CLASS MLC_WIND MLC_PRES USA_GUST BOM_GUST BOM_GUST_PER REUNION_GUST REUNION_GUST_PER USA_SEAHGT USA_SEARAD_NE USA_SEARAD_SE USA_SEARAD_SW USA_SEARAD_NW STORM_SPEED STORM_DIR
1941106S13075 1941 19 SI MM NOT_NAMED 1941-04-16 06:00:00 NR -13.0000 75.0000 reunion main 2004 1975 _____O________ -1 -13.0000 75.0000 99 9.90000 5 264
1941106S13075 1941 19 SI MM NOT_NAMED 1941-04-16 09:00:00 NR -13.0304 74.7205 main 1975 1951 _____P________ -1 -13.0304 74.7205 99 6 263
1941106S13075 1941 19 SI MM NOT_NAMED 1941-04-16 12:00:00 NR -13.0637 74.4366 main 1941 1922 _____P________ -1 -13.0637 74.4366 99 6 263
1941106S13075 1941 19 SI MM NOT_NAMED 1941-04-16 15:00:00 NR -13.1030 74.1441 main 1912 1902 _____P________ -1 -13.1030 74.1441 99 4 259
1941106S13075 1941 19 SI MM NOT_NAMED 1941-04-16 18:00:00 NR -13.1412 74.0310 main 1902 1878 _____P____O___ -1 -13.1515 73.8387 99 -13.1000 74.8000 7 4 256
1941106S13075 1941 19 SI MM NOT_NAMED 1941-04-16 21:00:00 NR -13.2040 73.7347 main 1868 1834 _____P____P___ -1 -13.2124 73.5160 99 -13.1873 74.1722 7 7 258
1941106S13075 1941 19 SI MM NOT_NAMED 1941-04-17 00:00:00 NR -13.2846 73.3360 main 1825 1781 _____P____P___ -1 -13.2887 73.1716 99 -13.2790 73.5553 7 9 258
1941106S13075 1941 19 SI MM NOT_NAMED 1941-04-17 03:00:00 NR -13.3824 72.8809 main 1781 1728 _____P____P___ -1 -13.3836 72.8011 99 -13.3812 72.9608 7 9 257
1941106S13075 1941 19 SI MM NOT_NAMED 1941-04-17 06:00:00 TS -13.5000 72.4000 reunion main 1728 1675 _____O___OO___ -1 -13.5000 72.4000 99 9.90000 -13.5000 72.4000 TC 25 -13.5000 72.4000 1 10 255
1941106S13075 1941 19 SI MM NOT_NAMED 1941-04-17 09:00:00 TS -13.6409 71.9168 main 1675 1627 _____P___PP___ -1 -13.6403 71.9660 99 -13.6427 71.8901 TC 25 -13.6407 71.8808 1 10 252
1941106S13075 1941 19 SI MM NOT_NAMED 1941-04-17 12:00:00 TS -13.8029 71.4375 main 1617 1568 _____P___OP___ -1 -13.8037 71.5059 99 -13.8000 71.4000 TC 25 -13.8043 71.3972 1 10 249
1941106S13075 1941 19 SI MM NOT_NAMED 1941-04-17 15:00:00 TS -13.9882 70.9704 main 1568 1510 _____P___PP___ -1 -13.9890 71.0286 99 -13.9849 70.9424 TC 25 -13.9908 70.9401 1 10 246
1941106S13075 1941 19 SI MM NOT_NAMED 1941-04-17 18:00:00 TS -14.1983 70.5144 main 1510 1462 _____P___OO___ -1 -14.1948 70.5431 99 -14.2000 70.5000 TC 25 -14.2000 70.5000 1 10 244
1941106S13075 1941 19 SI MM NOT_NAMED 1941-04-17 21:00:00 TS -14.4275 70.0511 main 1462 1398 _____P___PP___ -1 -14.4199 70.0584 99 -14.4425 70.0425 TC 25 -14.4201 70.0523 1 10 242
1941106S13075 1941 19 SI MM NOT_NAMED 1941-04-18 00:00:00 TS -14.6751 69.6011 main 1398 1350 _____P___OP___ -1 -14.6632 69.5835 99 -14.7000 69.6000 TC 25 -14.6622 69.6197 1 10 239
1941106S13075 1941 19 SI MM NOT_NAMED 1941-04-18 03:00:00 TS -14.9297 69.1741 main 1350 1267 _____P___PP___ -1 -14.9236 69.1277 99 -14.9424 69.1923 TC 25 -14.9232 69.2023 1 12 234
1941106S13075 1941 19 SI MM NOT_NAMED 1941-04-18 06:00:00 TS -15.3846 68.6077 reunion main 1267 1208 _____O___OO___ -1 -15.2000 68.7000 99 9.90000 -15.2000 68.8000 TC 25 -15.2000 68.8000 1 13 230
1941106S13075 1941 19 SI MM NOT_NAMED 1941-04-18 09:00:00 TS -15.7869 68.1289 main 1199 1146 _____P___PP___ -1 -15.4881 68.3090 99 -15.4925 68.3925 TC 25 -15.4733 68.3941 1 11 228
1941106S13075 1941 19 SI MM NOT_NAMED 1941-04-18 12:00:00 TS -16.1501 67.7290 main 1141 1098 _____P___OP___ -1 -15.7963 67.9406 99 -15.8000 68.0000 TC 25 -15.7624 68.0047 1 10 226
1941106S13075 1941 19 SI MM NOT_NAMED 1941-04-18 15:00:00 TS -16.4756 67.3956 main 1098 1069 _____P___PP___ -1 -16.1197 67.5946 99 -16.0924 67.6349 TC 25 -16.0702 67.6379 1 8 224
1941106S13075 1941 19 SI MM NOT_NAMED 1941-04-18 18:00:00 TS -16.7257 67.1423 main 1059 1027 _____P___OO___ -1 -16.4537 67.2709 99 -16.4000 67.3000 TC 25 -16.4000 67.3000 1 7 222
1941106S13075 1941 19 SI MM NOT_NAMED 1941-04-18 21:00:00 TS -16.9986 66.8985 main 1027 994 _____P___PP___ -1 -16.7935 66.9696 99 -16.7350 66.9849 TC 25 -16.7695 66.9760 1 7 219
1941106S13075 1941 19 SI MM NOT_NAMED 1941-04-19 00:00:00 TS -17.2899 66.6696 main 994 963 _____P___OP___ -1 -17.1343 66.6906 99 -17.1000 66.7000 TC 25 -17.1573 66.6827 1 7 215
1941106S13075 1941 19 SI MM NOT_NAMED 1941-04-19 03:00:00 TS -17.5988 66.4508 main 963 932 _____P___PP___ -1 -17.4714 66.4341 99 -17.5150 66.4275 TC 30 -17.5415 66.4229 1 7 213
1941106S13075 1941 19 SI MM NOT_NAMED 1941-04-19 06:00:00 TS -17.9000 66.2500 reunion main 932 905 _____O___OO___ -1 -17.8000 66.2000 99 9.90000 -17.9000 66.2000 TC 35 -17.9000 66.2000 2 7 213
1941106S13075 1941 19 SI MM NOT_NAMED 1941-04-19 09:00:00 TS -18.1520 66.0658 main 902 875 _____P___PP___ -1 -18.0741 65.9690 99 -18.1649 66.0348 TC 35 -18.1994 66.0134 2 6 214
1941106S13075 1941 19 SI MM NOT_NAMED 1941-04-19 12:00:00 TS -18.3968 65.8970 main 875 849 _____P___OP___ -1 -18.3388 65.7622 99 -18.4000 65.9000 TC 35 -18.4722 65.8617 2 6 212
1941106S13075 1941 19 SI MM NOT_NAMED 1941-04-19 15:00:00 TS -18.6619 65.7299 main 847 831 _____P___PP___ -1 -18.6008 65.5774 99 -18.6925 65.7500 TC 35 -18.7339 65.7292 2 6 210
1941106S13075 1941 19 SI MM NOT_NAMED 1941-04-19 18:00:00 TS -18.9421 65.5662 main 831 804 _____P___OO___ -1 -18.8666 65.4123 99 -19.0000 65.6000 TC 35 -19.0000 65.6000 2 7 209
1941106S13075 1941 19 SI MM NOT_NAMED 1941-04-19 21:00:00 TS -19.2329 65.4004 main 804 778 _____P___PP___ -1 -19.1428 65.2644 99 -19.3000 65.4499 TC 30 -19.2684 65.4457 2 7 207
1941106S13075 1941 19 SI MM NOT_NAMED 1941-04-20 00:00:00 TS -19.5400 65.2407 main 778 764 _____P___OP___ -1 -19.4360 65.1313 99 -19.6000 65.3000 TC 25 -19.5475 65.2922 2 7 205
1941106S13075 1941 19 SI MM NOT_NAMED 1941-04-20 03:00:00 TS -19.8632 65.0897 main 763 751 _____P___PP___ -1 -19.7529 65.0107 99 -19.8775 65.1499 TC 25 -19.8528 65.1425 2 7 202
1941106S13075 1941 19 SI MM NOT_NAMED 1941-04-20 06:00:00 TS -20.2250 64.9500 reunion main 751 729 _____O___OO___ -1 -20.1000 64.9000 99 9.90000 -20.2000 65.0000 TC 25 -20.2000 65.0000 1 8 199
1941106S13075 1941 19 SI MM NOT_NAMED 1941-04-20 09:00:00 TS -20.6471 64.8022 main 729 720 _____P___PP___ -1 -20.4631 64.7338 99 -20.6275 64.8425 TC 25 -20.6069 64.8558 1 9 197
1941106S13075 1941 19 SI MM NOT_NAMED 1941-04-20 12:00:00 TS -21.1088 64.6674 main 723 714 _____P___OP___ -1 -20.8515 64.5740 99 -21.1000 64.7000 TC 25 -21.0550 64.7202 1 10 194
1941106S13075 1941 19 SI MM NOT_NAMED 1941-04-20 15:00:00 TS -21.5851 64.5524 main 720 710 _____P___PP___ -1 -21.2667 64.4285 99 -21.5500 64.5849 TC 25 -21.5257 64.5996 1 10 191
1941106S13075 1941 19 SI MM NOT_NAMED 1941-04-20 18:00:00 TS -22.0736 64.4619 main 722 715 _____P___OO___ -1 -21.7102 64.3053 99 -22.0000 64.5000 TC 25 -22.0000 64.5000 1 10 189
1941106S13075 1941 19 SI MM NOT_NAMED 1941-04-20 21:00:00 TS -22.5498 64.3904 main 725 725 _____P___PP___ -1 -22.1836 64.2124 99 -22.4500 64.4424 TC 25 -22.3931 64.3926 1 10 186
1941106S13075 1941 19 SI MM NOT_NAMED 1941-04-21 00:00:00 TS -23.0328 64.3457 main 736 736 _____P___OP___ -1 -22.6886 64.1583 99 -22.9000 64.4000 TC 25 -22.7950 64.3115 1 10 183
1941106S13075 1941 19 SI MM NOT_NAMED 1941-04-21 03:00:00 TS -23.5172 64.3237 main 758 758 _____P___PP___ -1 -23.2268 64.1513 99 -23.2975 64.3278 TC 25 -23.2494 64.2745 1 10 180
1941106S13075 1941 19 SI MM NOT_NAMED 1941-04-21 06:00:00 TS -24.0500 64.3500 reunion main 792 783 _____O___OO___ -1 -23.8000 64.2000 99 9.90000 -23.8000 64.3000 TC 25 -23.8000 64.3000 1 12 175
1941106S13075 1941 19 SI MM NOT_NAMED 1941-04-21 09:00:00 TS -24.7022 64.4431 main 832 832 _____P___PP___ -1 -24.4826 64.3418 99 -24.5475 64.3552 TC 25 -24.5277 64.3855 1 14 171
1941106S13075 1941 19 SI MM NOT_NAMED 1941-04-21 12:00:00 TS -25.4031 64.5978 main 893 893 _____P___OP___ -1 -25.2132 64.5456 99 -25.4000 64.5000 TC 25 -25.3474 64.5370 1 14 167
1941106S13075 1941 19 SI MM NOT_NAMED 1941-04-21 15:00:00 TS -26.0984 64.8038 main 957 957 _____P___PP___ -1 -25.9685 64.7982 99 -26.2225 64.7199 TC 25 -26.1934 64.7452 1 14 163
1941106S13075 1941 19 SI MM NOT_NAMED 1941-04-21 18:00:00 TS -26.7640 65.0505 main 1030 1030 _____P___OO___ -1 -26.7251 65.0862 99 -27.0000 65.0000 TC 25 -27.0000 65.0000 1 14 160
1941106S13075 1941 19 SI MM NOT_NAMED 1941-04-21 21:00:00 TS -27.3701 65.3171 main 1090 1090 _____P___PP___ -1 -27.4597 65.3954 99 -27.6799 65.2854 TC 25 -27.7171 65.2912 1 13 157
1941106S13075 1941 19 SI MM NOT_NAMED 1941-04-22 00:00:00 TS -27.9420 65.6112 main 1150 1150 _____P___OP___ -1 -28.1491 65.7111 99 -28.3000 65.6000 TC 25 -28.3555 65.6103 1 13 155
1941106S13075 1941 19 SI MM NOT_NAMED 1941-04-22 03:00:00 TS -28.5070 65.9239 main 1218 1218 _____P___PP___ -1 -28.7701 66.0180 99 -28.9027 65.9416 TC 25 -28.9412 65.9492 1 13 154
1941106S13075 1941 19 SI MM NOT_NAMED 1941-04-22 06:00:00 TS -29.0857 66.2429 reunion main 1286 1286 _____O___OO___ -1 -29.3000 66.3000 99 9.90000 -29.5000 66.3000 TC 25 -29.5000 66.3000 1 13 156
1941106S13075 1941 19 SI MM NOT_NAMED 1941-04-22 09:00:00 NR -29.7223 66.5442 main 1355 1355 _____P________ -1 -29.7223 66.5442 99 TC 1 11 155
1941106S13075 1941 19 SI MM NOT_NAMED 1941-04-22 12:00:00 NR -30.0455 66.7515 main 1399 1399 _____P________ -1 -30.0455 66.7515 99 1 7 150
1941106S13075 1941 19 SI MM NOT_NAMED 1941-04-22 15:00:00 NR -30.2838 66.9266 main 1430 1430 _____P________ -1 -30.2838 66.9266 99 1 5 146
1941106S13075 1941 19 SI MM NOT_NAMED 1941-04-22 18:00:00 NR -30.4515 67.0744 main 1460 1460 _____P________ -1 -30.4515 67.0744 99 4 140
1941106S13075 1941 19 SI MM NOT_NAMED 1941-04-22 21:00:00 NR -30.5629 67.2002 main 1474 1474 _____P________ -1 -30.5629 67.2002 99 3 132
1941106S13075 1941 19 SI MM NOT_NAMED 1941-04-23 00:00:00 NR -30.6321 67.3094 main 1481 1481 _____P________ -1 -30.6321 67.3094 99 2 122
1941106S13075 1941 19 SI MM NOT_NAMED 1941-04-23 03:00:00 NR -30.6731 67.4075 main 1496 1496 _____P________ -1 -30.6731 67.4075 99 2 113
1941106S13075 1941 19 SI MM NOT_NAMED 1941-04-23 06:00:00 NR -30.7000 67.5000 reunion main 1502 _____O________ -1 -30.7000 67.5000 99 9.90000 2 110

IBTrACS Databaseについて

本データベースは、米国NOAAが公開する1842年以降の世界の熱帯低気圧のベストトラックデータアーカイブInternational Best Track Archive for Climate Stewardship (IBTrACS)を、ウェブで閲覧しやすい形式に変換したものです。

最終更新日:2021-10-08